DW3846 Weather Reports


Display with metric or nautical units.
time (UTC)temp
F
wind
direction
speed
MPH
gust
MPH
rain 1hr
in
rain 24hr
in
rain mn
in
humidity
%
barometer
mb
20210917140611 77 107 0.0 0.0 0.00 0.00 0.00 32 1021.6
20210917132611 76 96 0.0 0.0 0.00 0.00 0.00 32 1021.6
20210917131612 76 108 0.0 0.0 0.00 0.00 0.00 32 1021.6
20210917130612 76 125 0.0 0.0 0.00 0.00 0.00 32 1021.6
20210917123614 76 95 0.0 1.0 0.00 0.00 0.00 32 1021.6
20210917122612 76 91 0.0 2.0 0.00 0.00 0.00 32 1021.6
20210917114612 76 101 0.0 0.0 0.00 0.00 0.00 32 1021.6
20210917113611 76 101 0.0 0.0 0.00 0.00 0.00 32 1021.6
20210917112611 76 100 0.0 0.0 0.00 0.00 0.00 32 1021.6
20210917111611 76 105 0.0 0.0 0.00 0.00 0.00 32 1021.6
20210917110612 76 110 0.0 0.0 0.00 0.00 0.00 32 1021.6
20210917105612 76 112 0.0 0.0 0.00 0.00 0.00 32 1021.6
20210917104612 75 100 0.0 0.0 0.00 0.00 0.00 32 1021.6
20210917103611 75 95 0.0 0.0 0.00 0.00 0.00 32 1021.6
20210917102612 75 119 0.0 0.0 0.00 0.00 0.00 32 1021.6
20210917101612 75 148 0.0 0.0 0.00 0.00 0.00 32 1021.6
20210917100612 75 129 0.0 0.0 0.00 0.00 0.00 32 1021.6
20210917095612 75 135 0.0 0.0 0.00 0.00 0.00 32 1021.6
20210917094612 75 98 0.0 0.0 0.00 0.00 0.00 32 1021.6
20210917092611 75 94 0.0 0.0 0.00 0.00 0.00 32 1021.6
20210917084612 75 140 0.0 1.0 0.00 0.00 0.00 32 1021.6
20210917083612 75 119 0.0 0.0 0.00 0.00 0.00 32 1021.6
20210917082612 75 96 0.0 0.0 0.00 0.00 0.00 32 1021.6
20210917081612 75 94 0.0 0.0 0.00 0.00 0.00 32 1021.6
20210917075613 75 94 0.0 0.0 0.00 0.00 0.00 32 1021.6
20210917074612 75 94 0.0 0.0 0.00 0.01 0.00 32 1021.6
20210917072612 75 95 0.0 0.0 0.00 0.01 0.00 32 1021.6
20210917071612 75 94 0.0 0.0 0.00 0.01 0.00 32 1021.6
20210917070612 75 95 0.0 0.0 0.00 0.04 0.00 32 1021.6
20210917065611 75 95 0.0 0.0 0.00 0.05 0.00 32 1021.6
20210917064611 75 95 0.0 0.0 0.00 0.05 0.00 32 1021.6
20210917063612 75 95 0.0 0.0 0.00 0.05 0.00 32 1021.6
20210917062612 75 94 0.0 0.0 0.00 0.05 0.00 31 1021.6
20210917060612 75 94 0.0 1.0 0.00 0.05 0.00 31 1021.6
20210917055612 75 96 0.0 0.0 0.00 0.05 0.00 31 1021.6
20210917054611 75 96 0.0 0.0 0.00 0.05 0.00 31 1021.6
20210917053613 75 96 0.0 0.0 0.00 0.05 0.00 31 1021.6
20210917052612 75 96 0.0 5.0 0.00 0.05 0.00 31 1021.6
20210917051612 75 111 0.0 0.0 0.00 0.05 0.00 31 1021.6
20210917050610 75 111 0.0 0.0 0.00 0.05 0.00 31 1021.6
20210917044612 75 111 0.0 0.0 0.00 0.05 0.05 31 1021.6
20210917043612 75 124 0.0 0.0 0.00 0.05 0.05 31 1021.6
20210917042612 75 124 0.0 0.0 0.00 0.05 0.05 31 1021.6
20210917041612 75 120 0.0 0.0 0.00 0.05 0.05 31 1021.6
20210917040613 75 118 0.0 0.0 0.00 0.05 0.05 31 1021.6
20210917035612 75 98 0.0 0.0 0.00 0.06 0.05 31 1021.6
20210917033612 74 143 0.0 0.0 0.00 0.06 0.05 31 1021.6
20210917031611 74 58 0.0 0.0 0.00 0.06 0.05 31 1021.6
20210917030612 74 137 0.0 0.0 0.00 0.06 0.05 31 1021.6
20210917025612 74 72 0.0 0.0 0.00 0.06 0.05 31 1021.6
20210917024612 74 146 0.0 0.0 0.00 0.06 0.05 31 1021.6
20210917023611 74 40 0.0 0.0 0.00 0.06 0.05 31 1021.6
20210917022612 74 118 0.0 0.0 0.00 0.06 0.05 31 1021.6
20210917020613 74 7 0.0 0.0 0.00 0.06 0.05 31 1021.6
20210917015612 74 9 0.0 0.0 0.00 0.06 0.05 31 1021.6
20210917014612 75 69 0.0 0.0 0.00 0.06 0.05 31 1021.6
20210917013612 75 147 0.0 0.0 0.00 0.06 0.05 31 1021.6
20210917012612 75 145 0.0 0.0 0.00 0.07 0.05 31 1021.6
20210917011612 75 147 0.0 0.0 0.00 0.08 0.05 31 1021.6
20210917010613 75 145 0.0 0.0 0.00 0.10 0.05 31 1021.6
20210917005612 76 144 0.0 0.0 0.00 0.11 0.05 31 1021.6
20210917004612 76 147 0.0 0.0 0.00 0.14 0.05 31 1021.6
20210917002612 76 146 0.0 0.0 0.00 0.20 0.05 31 1021.6
20210917001612 76 167 0.0 2.0 0.00 0.26 0.05 31 1021.6
20210917000612 76 167 1.0 3.0 0.00 0.30 0.05 31 1021.6
20210916232611 77 153 1.0 3.0 0.00 0.56 0.05 31 1021.6
20210916231612 77 142 0.0 0.0 0.00 0.59 0.05 31 1021.6
20210916230612 77 95 0.0 0.0 0.00 0.62 0.05 31 1021.6
20210916225612 76 109 0.0 2.0 0.00 0.66 0.05 31 1021.6
20210916222612 79 139 2.0 8.0 0.00 0.76 0.05 33 1021.6
20210916221612 79 192 3.0 5.0 0.00 0.80 0.05 31 1021.6
20210916220612 79 194 2.0 6.0 0.00 0.85 0.05 31 1021.6
20210916215611 79 203 1.0 6.0 0.00 0.89 0.05 31 1021.6
20210916212612 81 243 5.0 9.0 0.00 0.96 0.05 35 1021.6
20210916210614 82 183 5.0 9.0 0.00 0.98 0.05 41 1021.6
20210916204612 82 162 2.0 10.0 0.00 1.00 0.05 42 1021.6
20210916203612 83 144 3.0 12.0 0.00 1.00 0.05 45 1021.6
20210916202614 83 177 6.0 12.0 0.00 1.00 0.05 46 1021.6
20210916201612 84 180 1.0 12.0 0.00 1.00 0.05 42 1021.6
20210916200612 82 191 5.0 8.0 0.00 1.00 0.05 37 1021.6
20210916194612 82 132 1.0 7.0 0.00 1.01 0.05 36 1021.6
20210916193612 82 175 2.0 7.0 0.00 1.01 0.05 37 1021.6
20210916190613 82 162 4.0 8.0 0.00 1.04 0.05 39 1021.6
20210916184613 83 168 2.0 6.0 0.00 1.04 0.05 39 1021.6
20210916183612 83 157 1.0 8.0 0.00 1.04 0.05 42 1021.6
20210916181612 84 153 3.0 12.0 0.00 1.04 0.05 44 1021.6
20210916180613 84 152 3.0 9.0 0.00 1.04 0.05 44 1021.6
20210916173609 84 129 0.0 3.0 0.00 1.04 0.05 36 1021.6
20210916172610 83 91 0.0 1.0 0.00 1.04 0.05 31 1021.6
20210916171610 83 165 1.0 3.0 0.00 1.05 0.05 32 1021.6
20210916170610 82 125 2.0 3.0 0.00 1.05 0.05 31 1021.6
20210916164609 82 126 1.0 6.0 0.00 1.05 0.05 32 1021.6
20210916163609 82 155 0.0 5.0 0.00 1.05 0.05 31 1021.6
20210916160610 81 89 0.0 0.0 0.00 1.09 0.05 31 1021.6
20210916154610 80 90 0.0 0.0 0.00 1.13 0.05 30 1021.6
20210916153610 79 97 0.0 0.0 0.00 1.14 0.05 30 1021.6
20210916152609 79 142 0.0 0.0 0.00 1.16 0.05 30 1021.6
20210916151609 79 94 0.0 0.0 0.00 1.18 0.05 30 1021.6
20210916150610 78 110 0.0 0.0 0.00 1.19 0.05 30 1021.6
20210916145610 78 123 0.0 0.0 0.00 1.19 0.05 30 1021.6
20210916144609 77 124 0.0 8.0 0.00 1.19 0.05 31 1021.6
20210916143610 77 153 5.0 8.0 0.00 1.19 0.05 32 1021.6
20210916142609 76 113 3.0 10.0 0.00 1.19 0.05 32 1021.6
20210916141609 76 171 3.0 10.0 0.00 1.19 0.05 32 1021.6